createdAt,value
2023-05-25T00:00:27.520Z,100.00
2023-05-25T00:04:50.777Z,100.00
2023-05-25T00:08:55.551Z,100.00
2023-05-25T00:12:58.246Z,100.00
2023-05-25T00:17:04.200Z,100.00
2023-05-25T00:21:07.329Z,100.00
2023-05-25T00:25:11.352Z,100.00
2023-05-25T00:29:15.025Z,100.00
2023-05-25T00:33:24.889Z,100.00
2023-05-25T00:37:28.164Z,100.00
2023-05-25T00:41:33.361Z,100.00
2023-05-25T00:45:41.390Z,100.00
2023-05-25T00:49:44.437Z,100.00
2023-05-25T00:53:47.215Z,100.00
2023-05-25T00:57:51.941Z,100.00
2023-05-25T01:01:55.603Z,100.00
2023-05-25T01:05:59.243Z,100.00
2023-05-25T01:10:10.184Z,100.00
2023-05-25T01:14:13.535Z,100.00
2023-05-25T01:18:17.982Z,100.00
2023-05-25T01:22:42.663Z,100.00
2023-05-25T01:27:07.811Z,100.00
2023-05-25T01:31:11.133Z,100.00
2023-05-25T01:35:24.659Z,100.00
2023-05-25T01:39:27.853Z,100.00
2023-05-25T01:43:30.974Z,100.00
2023-05-25T01:47:58.211Z,100.00
2023-05-25T01:52:31.450Z,100.00
2023-05-25T01:56:36.149Z,100.00
2023-05-25T02:00:41.065Z,100.00
2023-05-25T02:04:44.335Z,100.00
2023-05-25T02:08:47.121Z,100.00
2023-05-25T02:13:02.284Z,100.00
2023-05-25T02:17:05.137Z,100.00
2023-05-25T02:21:18.249Z,100.00
2023-05-25T02:25:21.147Z,100.00
2023-05-25T02:29:23.891Z,100.00
2023-05-25T02:33:32.414Z,100.00
2023-05-25T02:37:35.377Z,100.00
2023-05-25T02:41:38.705Z,100.00
2023-05-25T02:45:41.805Z,100.00
2023-05-25T02:49:49.610Z,100.00
2023-05-25T02:53:52.472Z,100.00
2023-05-25T02:57:55.399Z,100.00
2023-05-25T04:05:45.927Z,100.00
2023-05-25T04:09:48.928Z,100.00
2023-05-25T04:13:51.675Z,100.00
2023-05-25T04:17:55.144Z,100.00
2023-05-25T04:21:58.056Z,100.00
2023-05-25T04:26:01.598Z,100.00
2023-05-25T04:30:05.014Z,100.00
2023-05-25T04:34:09.768Z,100.00
2023-05-25T04:38:12.629Z,100.00
2023-05-25T04:42:17.087Z,100.00
2023-05-25T04:46:19.948Z,100.00
2023-05-25T04:50:23.481Z,100.00
2023-05-25T04:54:26.264Z,100.00
2023-05-25T04:58:29.595Z,100.00
2023-05-25T05:02:32.495Z,100.00
2023-05-25T05:06:36.576Z,100.00
2023-05-25T05:10:39.372Z,100.00
2023-05-25T05:14:42.364Z,100.00
2023-05-25T05:18:45.538Z,100.00
2023-05-25T05:22:49.192Z,100.00
2023-05-25T05:26:58.194Z,100.00
2023-05-25T05:31:01.892Z,100.00
2023-05-25T05:35:05.612Z,100.00
2023-05-25T05:39:08.949Z,99.96
2023-05-25T05:43:13.451Z,93.66
2023-05-25T05:47:16.250Z,92.11
2023-05-25T05:51:19.088Z,92.72
2023-05-25T05:55:23.948Z,93.51
2023-05-25T05:59:26.795Z,93.14
2023-05-25T06:03:30.076Z,94.69
2023-05-25T06:07:35.231Z,93.31
2023-05-25T06:11:40.120Z,91.39
2023-05-25T06:15:43.376Z,87.91
2023-05-25T06:19:49.910Z,86.05
2023-05-25T06:23:52.772Z,83.51
2023-05-25T06:27:55.963Z,81.10
2023-05-25T06:31:59.535Z,80.08
2023-05-25T06:36:02.445Z,80.05
2023-05-25T06:40:05.824Z,79.55
2023-05-25T06:44:09.294Z,78.84
2023-05-25T06:48:12.197Z,76.70
2023-05-25T06:52:15.115Z,77.02
2023-05-25T06:56:18.607Z,75.87
2023-05-25T07:00:21.549Z,77.21
2023-05-25T07:04:24.592Z,77.35
2023-05-25T07:08:27.340Z,76.62
2023-05-25T07:12:30.601Z,76.35
2023-05-25T07:16:34.413Z,78.04
2023-05-25T07:20:38.247Z,78.23
2023-05-25T07:24:41.121Z,77.79
2023-05-25T07:28:50.025Z,77.61
2023-05-25T07:32:52.967Z,79.02
2023-05-25T07:36:55.890Z,78.96
2023-05-25T07:40:58.827Z,80.27
2023-05-25T07:45:02.475Z,78.85
2023-05-25T07:49:06.690Z,78.71
2023-05-25T07:53:09.435Z,79.24
2023-05-25T07:57:12.221Z,80.17
2023-05-25T08:01:16.241Z,80.78
2023-05-25T08:05:18.986Z,79.88
2023-05-25T08:09:21.775Z,79.80
2023-05-25T08:30:18.217Z,76.81
2023-05-25T08:34:21.088Z,73.17
2023-05-25T08:38:26.099Z,71.56
2023-05-25T08:42:29.535Z,74.13
2023-05-25T08:46:32.702Z,71.22
2023-05-25T08:50:36.200Z,70.36
2023-05-25T08:54:40.258Z,71.66
2023-05-25T08:58:56.889Z,70.18
2023-05-25T09:03:33.444Z,72.04
2023-05-25T09:07:36.262Z,71.87
2023-05-25T09:11:42.216Z,73.33
2023-05-25T09:15:46.459Z,71.82
2023-05-25T09:19:50.220Z,70.21
2023-05-25T09:23:53.357Z,70.14
2023-05-25T09:28:10.208Z,70.88
2023-05-25T09:32:28.079Z,67.98
2023-05-25T09:36:32.733Z,67.16
2023-05-25T09:40:38.052Z,66.32
2023-05-25T09:44:42.693Z,65.08
2023-05-25T09:48:45.797Z,66.47
2023-05-25T09:53:00.535Z,66.70
2023-05-25T09:57:05.237Z,67.31
2023-05-25T10:01:08.192Z,68.52
2023-05-25T10:05:11.020Z,66.97
2023-05-25T10:09:15.476Z,67.13
2023-05-25T10:13:25.112Z,66.01
2023-05-25T10:17:31.890Z,66.47
2023-05-25T10:21:38.036Z,65.16
2023-05-25T10:25:44.988Z,66.89
2023-05-25T10:29:49.778Z,68.12
2023-05-25T10:33:52.903Z,67.30
2023-05-25T10:37:56.977Z,67.34
2023-05-25T10:42:02.168Z,66.40
2023-05-25T10:46:06.713Z,67.25
2023-05-25T10:50:21.153Z,66.64
2023-05-25T10:54:28.996Z,67.04
2023-05-25T10:58:32.829Z,67.24
2023-05-25T11:02:50.558Z,64.27
2023-05-25T11:07:04.342Z,64.09
2023-05-25T11:11:07.084Z,65.79
2023-05-25T11:15:12.610Z,67.08
2023-05-25T11:19:15.531Z,63.83
2023-05-25T11:23:25.098Z,62.97
2023-05-25T11:27:30.481Z,64.19
2023-05-25T11:31:41.455Z,65.16
2023-05-25T11:35:48.954Z,63.82
2023-05-25T11:39:52.740Z,64.78
2023-05-25T11:43:57.040Z,62.14
2023-05-25T11:47:59.973Z,63.36
2023-05-25T11:52:08.816Z,65.38
2023-05-25T11:56:15.995Z,65.55
2023-05-25T12:00:43.483Z,62.44
2023-05-25T12:05:01.932Z,63.10
2023-05-25T12:09:11.926Z,62.68
2023-05-25T12:13:15.063Z,65.08
2023-05-25T12:17:21.550Z,63.58
2023-05-25T12:21:24.903Z,61.73
2023-05-25T12:25:38.584Z,63.61
2023-05-25T12:29:53.161Z,61.55
2023-05-25T12:34:10.104Z,60.99
2023-05-25T12:38:22.203Z,61.04
2023-05-25T12:42:30.704Z,60.78
2023-05-25T12:46:33.578Z,59.28
2023-05-25T12:51:12.125Z,58.91
2023-05-25T12:55:43.177Z,61.77
2023-05-25T12:59:47.002Z,60.94
2023-05-25T13:03:49.828Z,60.66
2023-05-25T13:07:54.723Z,61.13
2023-05-25T13:11:58.486Z,60.00
2023-05-25T13:16:01.486Z,58.75
2023-05-25T13:20:04.709Z,58.65
2023-05-25T13:24:07.661Z,58.53
2023-05-25T13:28:15.919Z,59.39
2023-05-25T13:32:19.295Z,60.26
2023-05-25T13:36:20.979Z,59.04
2023-05-25T13:40:24.373Z,58.96
2023-05-25T13:44:27.192Z,57.83
2023-05-25T13:48:30.468Z,57.93
2023-05-25T13:52:37.017Z,57.73
2023-05-25T14:01:21.429Z,58.60
2023-05-25T14:05:26.198Z,57.10
2023-05-25T14:09:31.100Z,56.82
2023-05-25T14:13:38.086Z,57.71
2023-05-25T14:17:41.783Z,58.11
2023-05-25T14:21:45.051Z,55.88
2023-05-25T14:25:49.973Z,56.52
2023-05-25T14:29:53.276Z,57.31
2023-05-25T14:33:56.374Z,57.64
2023-05-25T14:37:59.512Z,56.96
2023-05-25T14:42:06.182Z,56.77
2023-05-25T14:46:10.732Z,57.26
2023-05-25T14:50:13.968Z,56.17
2023-05-25T14:54:17.594Z,57.33
2023-05-25T14:58:20.902Z,57.72
2023-05-25T15:02:24.563Z,58.98
2023-05-25T15:06:27.962Z,57.34
2023-05-25T15:10:31.287Z,58.22
2023-05-25T15:14:35.367Z,59.21
2023-05-25T15:18:38.747Z,61.19
2023-05-25T15:22:42.047Z,61.47
2023-05-25T15:26:45.575Z,61.21
2023-05-25T15:30:48.967Z,63.34
2023-05-25T15:34:52.171Z,64.67
2023-05-25T15:38:56.014Z,65.34
2023-05-25T15:42:59.359Z,61.87
2023-05-25T15:47:02.604Z,61.98
2023-05-25T15:51:06.042Z,62.16
2023-05-25T15:55:09.599Z,61.75
2023-05-25T15:59:12.873Z,63.29
2023-05-25T16:03:16.456Z,62.04
2023-05-25T16:07:19.893Z,61.33
2023-05-25T16:11:24.194Z,61.24
2023-05-25T16:15:27.537Z,61.41
2023-05-25T16:19:30.791Z,61.48
2023-05-25T16:23:34.892Z,64.13
2023-05-25T16:27:38.493Z,64.11
2023-05-25T16:31:42.004Z,64.75
2023-05-25T16:35:45.744Z,64.92
2023-05-25T16:39:49.277Z,64.69
2023-05-25T16:43:52.504Z,65.91
2023-05-25T16:47:55.810Z,66.98
2023-05-25T16:51:59.363Z,65.91
2023-05-25T16:56:02.741Z,66.08
2023-05-25T17:00:06.884Z,66.06
2023-05-25T17:04:10.521Z,66.90
2023-05-25T17:08:14.025Z,68.89
2023-05-25T17:12:17.462Z,69.34
2023-05-25T17:16:21.460Z,69.19
2023-05-25T17:20:25.055Z,68.88
2023-05-25T17:24:28.399Z,69.34
2023-05-25T17:28:33.084Z,69.86
2023-05-25T17:32:38.488Z,68.90
2023-05-25T17:36:42.901Z,69.28
2023-05-25T17:40:47.593Z,70.20
2023-05-25T17:44:51.660Z,73.11
2023-05-25T17:48:55.093Z,72.23
2023-05-25T17:52:58.475Z,71.67
2023-05-25T17:57:05.184Z,70.21
2023-05-25T18:01:09.164Z,69.61
2023-05-25T18:05:12.911Z,68.61
2023-05-25T18:09:17.017Z,68.52
2023-05-25T18:13:20.315Z,68.54
2023-05-25T18:17:23.602Z,68.19
2023-05-25T18:21:27.111Z,68.94
2023-05-25T18:25:30.530Z,69.12
2023-05-25T18:29:34.050Z,69.58
2023-05-25T18:33:37.566Z,70.57
2023-05-25T18:37:41.456Z,70.61
2023-05-25T18:41:44.842Z,71.81
2023-05-25T18:45:48.327Z,74.76
2023-05-25T18:49:51.921Z,75.28
2023-05-25T18:53:55.191Z,76.65
2023-05-25T18:57:58.451Z,77.20
2023-05-25T19:02:01.890Z,77.53
2023-05-25T19:06:05.470Z,78.00
2023-05-25T19:10:09.493Z,78.86
2023-05-25T19:14:12.895Z,79.57
2023-05-25T19:18:17.151Z,80.17
2023-05-25T19:22:21.068Z,81.63
2023-05-25T19:26:24.557Z,81.52
2023-05-25T19:30:28.095Z,82.61
2023-05-25T19:34:31.951Z,82.21
2023-05-25T19:38:41.170Z,82.81
2023-05-25T19:42:45.234Z,83.50
2023-05-25T19:46:48.888Z,84.32
2023-05-25T19:50:53.104Z,86.43
2023-05-25T19:54:56.380Z,86.88
2023-05-25T19:58:59.614Z,87.67
2023-05-25T20:03:03.176Z,88.40
2023-05-25T20:07:06.858Z,89.04
2023-05-25T20:11:10.072Z,89.83
2023-05-25T20:15:13.481Z,90.69
2023-05-25T20:19:19.035Z,91.78
2023-05-25T20:23:22.240Z,92.70
2023-05-25T20:27:25.798Z,93.78
2023-05-25T20:31:29.005Z,94.99
2023-05-25T20:35:33.528Z,95.77
2023-05-25T20:39:39.952Z,95.82
2023-05-25T20:43:43.214Z,95.60
2023-05-25T20:47:46.472Z,96.50
2023-05-25T20:51:50.733Z,96.37
2023-05-25T20:55:54.135Z,96.24
2023-05-25T21:00:00.019Z,96.24
2023-05-25T21:04:03.348Z,96.10
2023-05-25T21:08:06.885Z,95.99
2023-05-25T21:12:10.370Z,96.22
2023-05-25T21:16:15.420Z,95.57
2023-05-25T21:20:20.238Z,96.75
2023-05-25T21:24:24.165Z,96.97
2023-05-25T21:28:27.636Z,98.15
2023-05-25T21:32:32.488Z,98.99
2023-05-25T21:36:37.960Z,99.31
2023-05-25T21:40:42.525Z,99.91
2023-05-25T21:44:46.100Z,100.00
2023-05-25T21:48:49.595Z,100.00
2023-05-25T21:52:53.983Z,100.00
2023-05-25T21:56:57.857Z,99.89
2023-05-25T22:01:01.166Z,99.19
2023-05-25T22:05:04.916Z,98.61
2023-05-25T22:09:08.410Z,98.00
2023-05-25T22:13:12.004Z,98.14
2023-05-25T22:17:17.471Z,97.63
2023-05-25T22:21:21.094Z,98.27
2023-05-25T22:25:25.475Z,98.19
2023-05-25T22:29:28.916Z,97.58
2023-05-25T22:33:32.141Z,97.83
2023-05-25T22:37:35.762Z,98.14
2023-05-25T22:41:39.044Z,99.10
2023-05-25T22:45:42.564Z,98.62
2023-05-25T22:49:45.973Z,99.53
2023-05-25T22:53:49.683Z,99.32
2023-05-25T22:57:52.866Z,99.18
2023-05-25T23:01:56.368Z,98.01
2023-05-25T23:05:59.823Z,97.64
2023-05-25T23:10:03.367Z,98.98
2023-05-25T23:14:08.069Z,98.16
2023-05-25T23:18:15.587Z,98.24
2023-05-25T23:22:19.197Z,98.55
2023-05-25T23:26:22.455Z,99.64
2023-05-25T23:30:29.096Z,100.00
2023-05-25T23:34:42.516Z,100.00
2023-05-25T23:38:47.181Z,100.00
2023-05-25T23:42:51.651Z,100.00
2023-05-25T23:46:55.091Z,100.00
2023-05-25T23:50:58.820Z,100.00
2023-05-25T23:55:03.057Z,100.00
2023-05-25T23:59:06.594Z,100.00
